sensor_id;sensor_type;location;lat;lon;timestamp;temperature;humidity
38084;DHT22;23894;51.466;7.444;2022-07-03T00:00:07;18.70;99.90
38084;DHT22;23894;51.466;7.444;2022-07-03T00:02:09;18.70;99.90
38084;DHT22;23894;51.466;7.444;2022-07-03T00:04:10;18.60;99.90
38084;DHT22;23894;51.466;7.444;2022-07-03T00:06:10;18.70;99.90
38084;DHT22;23894;51.466;7.444;2022-07-03T00:08:11;18.60;99.90
38084;DHT22;23894;51.466;7.444;2022-07-03T00:10:12;18.60;99.90
38084;DHT22;23894;51.466;7.444;2022-07-03T00:12:13;18.60;99.90
38084;DHT22;23894;51.466;7.444;2022-07-03T00:14:13;18.60;99.90
38084;DHT22;23894;51.466;7.444;2022-07-03T00:16:14;18.50;99.90
38084;DHT22;23894;51.466;7.444;2022-07-03T00:18:14;18.50;99.90
38084;DHT22;23894;51.466;7.444;2022-07-03T00:20:15;18.50;99.90
38084;DHT22;23894;51.466;7.444;2022-07-03T00:22:15;18.50;99.90
38084;DHT22;23894;51.466;7.444;2022-07-03T00:24:19;18.50;99.90
38084;DHT22;23894;51.466;7.444;2022-07-03T00:26:20;18.40;99.90
38084;DHT22;23894;51.466;7.444;2022-07-03T00:28:21;18.40;99.90
38084;DHT22;23894;51.466;7.444;2022-07-03T00:30:22;18.40;99.90
38084;DHT22;23894;51.466;7.444;2022-07-03T00:32:25;18.30;99.90
38084;DHT22;23894;51.466;7.444;2022-07-03T00:34:26;18.30;99.90
38084;DHT22;23894;51.466;7.444;2022-07-03T00:36:36;18.30;99.90
38084;DHT22;23894;51.466;7.444;2022-07-03T00:38:38;18.30;99.90
38084;DHT22;23894;51.466;7.444;2022-07-03T00:40:38;18.20;99.90
38084;DHT22;23894;51.466;7.444;2022-07-03T00:42:39;18.20;99.90
38084;DHT22;23894;51.466;7.444;2022-07-03T00:44:52;18.20;99.90
38084;DHT22;23894;51.466;7.444;2022-07-03T00:46:54;18.10;99.90
38084;DHT22;23894;51.466;7.444;2022-07-03T00:48:56;18.10;99.90
38084;DHT22;23894;51.466;7.444;2022-07-03T00:50:59;18.00;99.90
38084;DHT22;23894;51.466;7.444;2022-07-03T00:53:01;18.00;99.90
38084;DHT22;23894;51.466;7.444;2022-07-03T00:55:07;18.00;99.90
38084;DHT22;23894;51.466;7.444;2022-07-03T00:57:13;17.90;99.90
38084;DHT22;23894;51.466;7.444;2022-07-03T00:59:14;17.90;99.90
38084;DHT22;23894;51.466;7.444;2022-07-03T01:01:16;17.90;99.90
38084;DHT22;23894;51.466;7.444;2022-07-03T01:03:18;17.80;99.90
38084;DHT22;23894;51.466;7.444;2022-07-03T01:05:34;17.80;99.90
38084;DHT22;23894;51.466;7.444;2022-07-03T01:12:44;17.70;99.90
38084;DHT22;23894;51.466;7.444;2022-07-03T01:14:59;17.80;99.90
38084;DHT22;23894;51.466;7.444;2022-07-03T01:17:26;17.70;99.90
38084;DHT22;23894;51.466;7.444;2022-07-03T01:19:43;17.70;99.90
38084;DHT22;23894;51.466;7.444;2022-07-03T01:21:54;17.70;99.90
38084;DHT22;23894;51.466;7.444;2022-07-03T01:24:17;17.60;99.90
38084;DHT22;23894;51.466;7.444;2022-07-03T01:26:27;17.60;99.90
38084;DHT22;23894;51.466;7.444;2022-07-03T01:28:28;17.60;99.90
38084;DHT22;23894;51.466;7.444;2022-07-03T01:30:29;17.50;99.90
38084;DHT22;23894;51.466;7.444;2022-07-03T01:32:42;17.50;99.90
38084;DHT22;23894;51.466;7.444;2022-07-03T01:34:44;17.50;99.90
38084;DHT22;23894;51.466;7.444;2022-07-03T01:36:48;17.40;99.90
38084;DHT22;23894;51.466;7.444;2022-07-03T01:38:50;17.40;99.90
38084;DHT22;23894;51.466;7.444;2022-07-03T01:40:51;17.40;99.90
38084;DHT22;23894;51.466;7.444;2022-07-03T01:42:54;17.40;99.90
38084;DHT22;23894;51.466;7.444;2022-07-03T01:44:56;17.40;99.90
38084;DHT22;23894;51.466;7.444;2022-07-03T01:46:59;17.40;99.90
38084;DHT22;23894;51.466;7.444;2022-07-03T01:49:00;17.30;99.90
38084;DHT22;23894;51.466;7.444;2022-07-03T01:51:02;17.30;99.90
38084;DHT22;23894;51.466;7.444;2022-07-03T01:53:04;17.30;99.90
38084;DHT22;23894;51.466;7.444;2022-07-03T01:55:06;17.30;99.90
38084;DHT22;23894;51.466;7.444;2022-07-03T01:57:08;17.20;99.90
38084;DHT22;23894;51.466;7.444;2022-07-03T01:59:08;17.20;99.90
38084;DHT22;23894;51.466;7.444;2022-07-03T02:01:45;17.20;99.90
38084;DHT22;23894;51.466;7.444;2022-07-03T02:04:24;17.20;99.90
38084;DHT22;23894;51.466;7.444;2022-07-03T02:06:42;17.10;99.90
38084;DHT22;23894;51.466;7.444;2022-07-03T02:08:50;17.10;99.90
38084;DHT22;23894;51.466;7.444;2022-07-03T02:11:08;17.10;99.90
38084;DHT22;23894;51.466;7.444;2022-07-03T02:13:22;17.00;99.90
38084;DHT22;23894;51.466;7.444;2022-07-03T02:15:32;17.00;99.90
38084;DHT22;23894;51.466;7.444;2022-07-03T02:17:43;16.90;99.90
38084;DHT22;23894;51.466;7.444;2022-07-03T02:20:02;16.90;99.90
38084;DHT22;23894;51.466;7.444;2022-07-03T02:22:07;16.90;99.90
38084;DHT22;23894;51.466;7.444;2022-07-03T02:26:18;16.90;99.90
38084;DHT22;23894;51.466;7.444;2022-07-03T02:28:54;16.90;99.90
38084;DHT22;23894;51.466;7.444;2022-07-03T02:30:59;16.90;99.90
38084;DHT22;23894;51.466;7.444;2022-07-03T02:33:02;16.80;99.90
38084;DHT22;23894;51.466;7.444;2022-07-03T02:35:06;16.90;99.90
38084;DHT22;23894;51.466;7.444;2022-07-03T02:37:12;16.80;99.90
38084;DHT22;23894;51.466;7.444;2022-07-03T02:41:43;16.80;99.90
38084;DHT22;23894;51.466;7.444;2022-07-03T02:44:02;16.80;99.90
38084;DHT22;23894;51.466;7.444;2022-07-03T02:46:16;16.70;99.90
38084;DHT22;23894;51.466;7.444;2022-07-03T02:48:41;16.70;99.90
38084;DHT22;23894;51.466;7.444;2022-07-03T02:50:46;16.70;99.90
38084;DHT22;23894;51.466;7.444;2022-07-03T02:53:19;16.70;99.90
38084;DHT22;23894;51.466;7.444;2022-07-03T02:57:41;16.70;99.90
38084;DHT22;23894;51.466;7.444;2022-07-03T02:59:52;16.70;99.90
38084;DHT22;23894;51.466;7.444;2022-07-03T03:02:07;16.60;99.90
38084;DHT22;23894;51.466;7.444;2022-07-03T03:04:30;16.60;99.90
38084;DHT22;23894;51.466;7.444;2022-07-03T03:06:32;16.50;99.90
38084;DHT22;23894;51.466;7.444;2022-07-03T03:08:50;16.50;99.90
38084;DHT22;23894;51.466;7.444;2022-07-03T03:10:59;16.50;99.90
38084;DHT22;23894;51.466;7.444;2022-07-03T03:13:07;16.50;99.90
38084;DHT22;23894;51.466;7.444;2022-07-03T03:15:12;16.50;99.90
38084;DHT22;23894;51.466;7.444;2022-07-03T03:17:23;16.40;99.90
38084;DHT22;23894;51.466;7.444;2022-07-03T03:19:24;16.40;99.90
38084;DHT22;23894;51.466;7.444;2022-07-03T03:21:27;16.40;99.90
38084;DHT22;23894;51.466;7.444;2022-07-03T03:23:51;16.40;99.90
38084;DHT22;23894;51.466;7.444;2022-07-03T03:25:54;16.40;99.90
38084;DHT22;23894;51.466;7.444;2022-07-03T03:27:55;16.30;99.90
38084;DHT22;23894;51.466;7.444;2022-07-03T03:29:56;16.30;99.90
38084;DHT22;23894;51.466;7.444;2022-07-03T03:31:57;16.30;99.90
38084;DHT22;23894;51.466;7.444;2022-07-03T03:33:58;16.20;99.90
38084;DHT22;23894;51.466;7.444;2022-07-03T03:35:59;16.30;99.90
38084;DHT22;23894;51.466;7.444;2022-07-03T03:38:00;16.20;99.90
38084;DHT22;23894;51.466;7.444;2022-07-03T03:40:02;16.30;99.90
38084;DHT22;23894;51.466;7.444;2022-07-03T03:42:04;16.20;99.90
38084;DHT22;23894;51.466;7.444;2022-07-03T03:44:04;16.20;99.90
38084;DHT22;23894;51.466;7.444;2022-07-03T03:46:05;16.20;99.90
38084;DHT22;23894;51.466;7.444;2022-07-03T03:48:05;16.20;99.90
38084;DHT22;23894;51.466;7.444;2022-07-03T03:50:07;16.20;99.90
38084;DHT22;23894;51.466;7.444;2022-07-03T03:52:08;16.20;99.90
38084;DHT22;23894;51.466;7.444;2022-07-03T03:54:08;16.20;99.90
38084;DHT22;23894;51.466;7.444;2022-07-03T03:56:10;16.20;99.90
38084;DHT22;23894;51.466;7.444;2022-07-03T03:58:15;16.20;99.90
38084;DHT22;23894;51.466;7.444;2022-07-03T04:00:16;16.20;99.90
38084;DHT22;23894;51.466;7.444;2022-07-03T04:02:17;16.20;99.90
38084;DHT22;23894;51.466;7.444;2022-07-03T04:04:18;16.20;99.90
38084;DHT22;23894;51.466;7.444;2022-07-03T04:06:21;16.20;99.90
38084;DHT22;23894;51.466;7.444;2022-07-03T04:08:23;16.20;99.90
38084;DHT22;23894;51.466;7.444;2022-07-03T04:10:24;16.30;99.90
38084;DHT22;23894;51.466;7.444;2022-07-03T04:12:25;16.30;99.90
38084;DHT22;23894;51.466;7.444;2022-07-03T04:14:25;16.30;99.90
38084;DHT22;23894;51.466;7.444;2022-07-03T04:16:27;16.40;99.90
38084;DHT22;23894;51.466;7.444;2022-07-03T04:18:28;16.40;99.90
38084;DHT22;23894;51.466;7.444;2022-07-03T04:20:28;16.40;99.90
38084;DHT22;23894;51.466;7.444;2022-07-03T04:22:31;16.50;99.90
38084;DHT22;23894;51.466;7.444;2022-07-03T04:24:31;16.50;99.90
38084;DHT22;23894;51.466;7.444;2022-07-03T04:26:32;16.50;99.90
38084;DHT22;23894;51.466;7.444;2022-07-03T04:28:33;16.60;99.90
38084;DHT22;23894;51.466;7.444;2022-07-03T04:30:33;16.60;99.90
38084;DHT22;23894;51.466;7.444;2022-07-03T04:32:34;16.60;99.90
38084;DHT22;23894;51.466;7.444;2022-07-03T04:34:34;16.70;99.90
38084;DHT22;23894;51.466;7.444;2022-07-03T04:36:35;16.70;99.90
38084;DHT22;23894;51.466;7.444;2022-07-03T04:38:35;16.80;99.90
38084;DHT22;23894;51.466;7.444;2022-07-03T04:40:36;16.80;99.90
38084;DHT22;23894;51.466;7.444;2022-07-03T04:42:36;16.80;99.90
38084;DHT22;23894;51.466;7.444;2022-07-03T04:44:37;16.80;99.90
38084;DHT22;23894;51.466;7.444;2022-07-03T04:46:37;16.90;99.90
38084;DHT22;23894;51.466;7.444;2022-07-03T04:48:38;16.90;99.90
38084;DHT22;23894;51.466;7.444;2022-07-03T04:50:38;16.90;99.90
38084;DHT22;23894;51.466;7.444;2022-07-03T04:52:39;16.90;99.90
38084;DHT22;23894;51.466;7.444;2022-07-03T04:54:39;17.00;99.90
38084;DHT22;23894;51.466;7.444;2022-07-03T04:56:40;17.00;99.90
38084;DHT22;23894;51.466;7.444;2022-07-03T04:58:40;17.10;99.90
38084;DHT22;23894;51.466;7.444;2022-07-03T05:00:43;17.10;99.90
38084;DHT22;23894;51.466;7.444;2022-07-03T05:02:44;17.20;99.90
38084;DHT22;23894;51.466;7.444;2022-07-03T05:04:44;17.20;99.90
38084;DHT22;23894;51.466;7.444;2022-07-03T05:06:47;17.30;99.90
38084;DHT22;23894;51.466;7.444;2022-07-03T05:08:49;17.30;99.90
38084;DHT22;23894;51.466;7.444;2022-07-03T05:10:49;17.30;99.90
38084;DHT22;23894;51.466;7.444;2022-07-03T05:12:50;17.40;99.90
38084;DHT22;23894;51.466;7.444;2022-07-03T05:14:50;17.40;99.90
38084;DHT22;23894;51.466;7.444;2022-07-03T05:16:51;17.50;99.90
38084;DHT22;23894;51.466;7.444;2022-07-03T05:18:51;17.50;99.90
38084;DHT22;23894;51.466;7.444;2022-07-03T05:20:52;17.60;99.90
38084;DHT22;23894;51.466;7.444;2022-07-03T05:22:53;17.60;99.90
38084;DHT22;23894;51.466;7.444;2022-07-03T05:24:54;17.70;99.90
38084;DHT22;23894;51.466;7.444;2022-07-03T05:26:54;17.70;99.90
38084;DHT22;23894;51.466;7.444;2022-07-03T05:28:54;17.70;99.90
38084;DHT22;23894;51.466;7.444;2022-07-03T05:30:55;17.70;99.90
38084;DHT22;23894;51.466;7.444;2022-07-03T05:32:56;17.70;99.90
38084;DHT22;23894;51.466;7.444;2022-07-03T05:34:56;17.70;99.90
38084;DHT22;23894;51.466;7.444;2022-07-03T05:36:57;17.80;99.90
38084;DHT22;23894;51.466;7.444;2022-07-03T05:38:57;17.80;99.90
38084;DHT22;23894;51.466;7.444;2022-07-03T05:41:16;17.80;99.90
38084;DHT22;23894;51.466;7.444;2022-07-03T05:43:17;17.90;99.90
38084;DHT22;23894;51.466;7.444;2022-07-03T05:45:18;17.90;99.90
38084;DHT22;23894;51.466;7.444;2022-07-03T05:47:18;17.90;99.90
38084;DHT22;23894;51.466;7.444;2022-07-03T05:49:19;18.00;99.90
38084;DHT22;23894;51.466;7.444;2022-07-03T05:51:20;18.10;99.90
38084;DHT22;23894;51.466;7.444;2022-07-03T05:53:20;18.10;99.90
38084;DHT22;23894;51.466;7.444;2022-07-03T05:55:21;18.20;99.90
38084;DHT22;23894;51.466;7.444;2022-07-03T05:57:21;18.30;99.90
38084;DHT22;23894;51.466;7.444;2022-07-03T05:59:22;18.40;99.90
38084;DHT22;23894;51.466;7.444;2022-07-03T06:01:22;18.40;99.90
38084;DHT22;23894;51.466;7.444;2022-07-03T06:03:23;18.60;99.90
38084;DHT22;23894;51.466;7.444;2022-07-03T06:05:24;18.70;99.90
38084;DHT22;23894;51.466;7.444;2022-07-03T06:07:24;18.80;99.90
38084;DHT22;23894;51.466;7.444;2022-07-03T06:09:25;18.80;99.90
38084;DHT22;23894;51.466;7.444;2022-07-03T06:11:26;18.90;99.90
38084;DHT22;23894;51.466;7.444;2022-07-03T06:13:26;19.00;99.90
38084;DHT22;23894;51.466;7.444;2022-07-03T06:15:27;19.00;99.90
38084;DHT22;23894;51.466;7.444;2022-07-03T06:17:27;19.10;99.90
38084;DHT22;23894;51.466;7.444;2022-07-03T06:19:28;19.20;99.90
38084;DHT22;23894;51.466;7.444;2022-07-03T06:21:29;19.30;99.90
38084;DHT22;23894;51.466;7.444;2022-07-03T06:23:29;19.30;99.90
38084;DHT22;23894;51.466;7.444;2022-07-03T06:25:30;19.40;99.90
38084;DHT22;23894;51.466;7.444;2022-07-03T06:27:30;19.50;99.90
38084;DHT22;23894;51.466;7.444;2022-07-03T06:29:31;19.50;99.90
38084;DHT22;23894;51.466;7.444;2022-07-03T06:31:31;19.60;99.90
38084;DHT22;23894;51.466;7.444;2022-07-03T06:33:32;19.60;99.90
38084;DHT22;23894;51.466;7.444;2022-07-03T06:35:32;19.70;99.90
38084;DHT22;23894;51.466;7.444;2022-07-03T06:37:33;19.70;99.90
38084;DHT22;23894;51.466;7.444;2022-07-03T06:39:33;19.70;99.90
38084;DHT22;23894;51.466;7.444;2022-07-03T06:41:34;19.70;99.90
38084;DHT22;23894;51.466;7.444;2022-07-03T06:43:34;19.70;99.90
38084;DHT22;23894;51.466;7.444;2022-07-03T06:45:35;19.80;99.90
38084;DHT22;23894;51.466;7.444;2022-07-03T06:47:36;19.80;99.90
38084;DHT22;23894;51.466;7.444;2022-07-03T06:49:37;19.80;99.90
38084;DHT22;23894;51.466;7.444;2022-07-03T06:51:37;19.80;99.90
38084;DHT22;23894;51.466;7.444;2022-07-03T06:53:38;19.90;99.90
38084;DHT22;23894;51.466;7.444;2022-07-03T06:55:38;19.90;99.90
38084;DHT22;23894;51.466;7.444;2022-07-03T06:57:39;19.90;99.90
38084;DHT22;23894;51.466;7.444;2022-07-03T06:59:40;20.00;99.90
38084;DHT22;23894;51.466;7.444;2022-07-03T07:01:41;20.00;99.90
38084;DHT22;23894;51.466;7.444;2022-07-03T07:03:42;20.10;99.90
38084;DHT22;23894;51.466;7.444;2022-07-03T07:05:42;20.20;99.90
38084;DHT22;23894;51.466;7.444;2022-07-03T07:07:43;20.20;99.90
38084;DHT22;23894;51.466;7.444;2022-07-03T07:09:43;20.30;99.90
38084;DHT22;23894;51.466;7.444;2022-07-03T07:11:44;20.30;99.90
38084;DHT22;23894;51.466;7.444;2022-07-03T07:13:45;20.40;99.90
38084;DHT22;23894;51.466;7.444;2022-07-03T07:15:47;20.40;99.90
38084;DHT22;23894;51.466;7.444;2022-07-03T07:17:49;20.40;99.90
38084;DHT22;23894;51.466;7.444;2022-07-03T07:19:50;20.50;99.90
38084;DHT22;23894;51.466;7.444;2022-07-03T07:21:50;20.50;99.90
38084;DHT22;23894;51.466;7.444;2022-07-03T07:23:51;20.60;99.90
38084;DHT22;23894;51.466;7.444;2022-07-03T07:25:51;20.70;99.90
38084;DHT22;23894;51.466;7.444;2022-07-03T07:27:52;20.80;99.90
38084;DHT22;23894;51.466;7.444;2022-07-03T07:29:52;20.80;99.90
38084;DHT22;23894;51.466;7.444;2022-07-03T07:31:53;20.90;99.90
38084;DHT22;23894;51.466;7.444;2022-07-03T07:33:53;20.90;99.90
38084;DHT22;23894;51.466;7.444;2022-07-03T07:35:54;21.00;99.90
38084;DHT22;23894;51.466;7.444;2022-07-03T07:37:54;21.00;99.90
38084;DHT22;23894;51.466;7.444;2022-07-03T07:39:55;21.10;99.90
38084;DHT22;23894;51.466;7.444;2022-07-03T07:41:55;21.10;99.90
38084;DHT22;23894;51.466;7.444;2022-07-03T07:43:56;21.20;99.90
38084;DHT22;23894;51.466;7.444;2022-07-03T07:45:57;21.30;99.90
38084;DHT22;23894;51.466;7.444;2022-07-03T07:47:59;21.40;99.90
38084;DHT22;23894;51.466;7.444;2022-07-03T07:50:01;21.40;99.90
38084;DHT22;23894;51.466;7.444;2022-07-03T07:52:01;21.50;99.90
38084;DHT22;23894;51.466;7.444;2022-07-03T07:54:02;21.60;99.90
38084;DHT22;23894;51.466;7.444;2022-07-03T07:56:03;21.70;99.90
38084;DHT22;23894;51.466;7.444;2022-07-03T07:58:04;21.70;99.90
38084;DHT22;23894;51.466;7.444;2022-07-03T08:00:09;21.80;99.90
38084;DHT22;23894;51.466;7.444;2022-07-03T08:02:10;21.90;99.90
38084;DHT22;23894;51.466;7.444;2022-07-03T08:04:30;21.90;99.90
38084;DHT22;23894;51.466;7.444;2022-07-03T08:06:49;22.00;99.90
38084;DHT22;23894;51.466;7.444;2022-07-03T08:08:50;22.10;99.90
38084;DHT22;23894;51.466;7.444;2022-07-03T08:10:50;22.20;99.90
38084;DHT22;23894;51.466;7.444;2022-07-03T08:12:51;22.20;99.90
38084;DHT22;23894;51.466;7.444;2022-07-03T08:14:52;22.30;99.90
38084;DHT22;23894;51.466;7.444;2022-07-03T08:16:52;22.40;99.90
38084;DHT22;23894;51.466;7.444;2022-07-03T08:18:53;22.40;99.90
38084;DHT22;23894;51.466;7.444;2022-07-03T08:20:54;22.50;99.90
38084;DHT22;23894;51.466;7.444;2022-07-03T08:22:54;22.60;99.90
38084;DHT22;23894;51.466;7.444;2022-07-03T08:24:55;22.60;99.90
38084;DHT22;23894;51.466;7.444;2022-07-03T08:26:56;22.70;99.90
38084;DHT22;23894;51.466;7.444;2022-07-03T08:28:57;22.70;99.90
38084;DHT22;23894;51.466;7.444;2022-07-03T08:30:58;22.80;99.90
38084;DHT22;23894;51.466;7.444;2022-07-03T08:32:59;22.80;99.90
38084;DHT22;23894;51.466;7.444;2022-07-03T08:35:00;22.90;99.90
38084;DHT22;23894;51.466;7.444;2022-07-03T08:37:00;22.90;99.90
38084;DHT22;23894;51.466;7.444;2022-07-03T08:39:01;23.00;99.90
38084;DHT22;23894;51.466;7.444;2022-07-03T08:41:03;23.10;99.90
38084;DHT22;23894;51.466;7.444;2022-07-03T08:43:04;23.10;99.90
38084;DHT22;23894;51.466;7.444;2022-07-03T08:45:06;23.20;99.90
38084;DHT22;23894;51.466;7.444;2022-07-03T08:47:08;23.30;99.90
38084;DHT22;23894;51.466;7.444;2022-07-03T08:49:11;23.30;99.90
38084;DHT22;23894;51.466;7.444;2022-07-03T08:51:13;23.30;99.90
38084;DHT22;23894;51.466;7.444;2022-07-03T08:53:16;23.40;99.90
38084;DHT22;23894;51.466;7.444;2022-07-03T08:55:18;23.40;99.90
38084;DHT22;23894;51.466;7.444;2022-07-03T08:57:19;23.50;99.90
38084;DHT22;23894;51.466;7.444;2022-07-03T08:59:21;23.50;99.90
38084;DHT22;23894;51.466;7.444;2022-07-03T09:01:24;23.60;99.90
38084;DHT22;23894;51.466;7.444;2022-07-03T09:03:25;23.70;99.90
38084;DHT22;23894;51.466;7.444;2022-07-03T09:05:28;23.70;99.90
38084;DHT22;23894;51.466;7.444;2022-07-03T09:07:38;23.80;99.90
38084;DHT22;23894;51.466;7.444;2022-07-03T09:09:41;23.80;99.90
38084;DHT22;23894;51.466;7.444;2022-07-03T09:11:41;23.90;99.90
38084;DHT22;23894;51.466;7.444;2022-07-03T09:13:42;23.90;99.90
38084;DHT22;23894;51.466;7.444;2022-07-03T09:15:44;24.00;99.90
38084;DHT22;23894;51.466;7.444;2022-07-03T09:18:00;24.00;99.90
38084;DHT22;23894;51.466;7.444;2022-07-03T09:20:03;24.00;99.90
38084;DHT22;23894;51.466;7.444;2022-07-03T09:22:18;24.10;99.90
38084;DHT22;23894;51.466;7.444;2022-07-03T09:24:19;24.10;99.90
38084;DHT22;23894;51.466;7.444;2022-07-03T09:26:19;24.20;99.90
38084;DHT22;23894;51.466;7.444;2022-07-03T09:28:23;24.30;99.90
38084;DHT22;23894;51.466;7.444;2022-07-03T09:30:24;24.30;99.90
38084;DHT22;23894;51.466;7.444;2022-07-03T09:32:25;24.40;99.90
38084;DHT22;23894;51.466;7.444;2022-07-03T09:34:26;24.30;99.90
38084;DHT22;23894;51.466;7.444;2022-07-03T09:36:47;24.40;99.90
38084;DHT22;23894;51.466;7.444;2022-07-03T09:38:48;24.40;99.90
38084;DHT22;23894;51.466;7.444;2022-07-03T09:40:53;24.50;99.90
38084;DHT22;23894;51.466;7.444;2022-07-03T09:43:06;24.60;99.90
38084;DHT22;23894;51.466;7.444;2022-07-03T09:45:08;24.60;99.90
38084;DHT22;23894;51.466;7.444;2022-07-03T09:47:12;24.70;99.90
38084;DHT22;23894;51.466;7.444;2022-07-03T09:49:14;24.70;99.90
38084;DHT22;23894;51.466;7.444;2022-07-03T09:53:17;24.80;99.90
38084;DHT22;23894;51.466;7.444;2022-07-03T09:55:18;24.90;99.90
38084;DHT22;23894;51.466;7.444;2022-07-03T09:57:19;24.90;99.90
38084;DHT22;23894;51.466;7.444;2022-07-03T09:59:21;25.00;99.90
38084;DHT22;23894;51.466;7.444;2022-07-03T10:01:22;25.00;99.90
38084;DHT22;23894;51.466;7.444;2022-07-03T10:03:23;25.00;99.90
38084;DHT22;23894;51.466;7.444;2022-07-03T10:05:26;25.10;99.90
38084;DHT22;23894;51.466;7.444;2022-07-03T10:07:26;25.20;99.90
38084;DHT22;23894;51.466;7.444;2022-07-03T10:09:32;25.20;99.90
38084;DHT22;23894;51.466;7.444;2022-07-03T10:11:33;25.20;99.90
38084;DHT22;23894;51.466;7.444;2022-07-03T10:13:37;25.20;99.90
38084;DHT22;23894;51.466;7.444;2022-07-03T10:15:39;25.30;99.90
38084;DHT22;23894;51.466;7.444;2022-07-03T10:17:42;25.40;99.90
38084;DHT22;23894;51.466;7.444;2022-07-03T10:19:43;25.50;99.90
38084;DHT22;23894;51.466;7.444;2022-07-03T10:21:43;25.60;99.90
38084;DHT22;23894;51.466;7.444;2022-07-03T10:23:49;25.60;99.90
38084;DHT22;23894;51.466;7.444;2022-07-03T10:25:50;25.70;99.90
38084;DHT22;23894;51.466;7.444;2022-07-03T10:27:51;25.80;99.90
38084;DHT22;23894;51.466;7.444;2022-07-03T10:29:52;25.80;99.90
38084;DHT22;23894;51.466;7.444;2022-07-03T10:31:54;25.80;99.90
38084;DHT22;23894;51.466;7.444;2022-07-03T10:33:56;25.80;99.90
38084;DHT22;23894;51.466;7.444;2022-07-03T10:35:57;25.80;99.90
38084;DHT22;23894;51.466;7.444;2022-07-03T10:40:22;25.90;99.90
38084;DHT22;23894;51.466;7.444;2022-07-03T10:42:41;25.90;99.90
38084;DHT22;23894;51.466;7.444;2022-07-03T10:45:09;25.90;99.90
38084;DHT22;23894;51.466;7.444;2022-07-03T10:47:42;26.00;99.90
38084;DHT22;23894;51.466;7.444;2022-07-03T10:50:01;26.00;99.90
38084;DHT22;23894;51.466;7.444;2022-07-03T10:52:04;26.10;99.90
38084;DHT22;23894;51.466;7.444;2022-07-03T10:54:33;26.10;99.90
38084;DHT22;23894;51.466;7.444;2022-07-03T10:59:00;26.20;99.90
38084;DHT22;23894;51.466;7.444;2022-07-03T11:01:01;26.30;99.90
38084;DHT22;23894;51.466;7.444;2022-07-03T11:03:01;26.30;99.90
38084;DHT22;23894;51.466;7.444;2022-07-03T11:07:09;26.30;99.90
38084;DHT22;23894;51.466;7.444;2022-07-03T11:09:11;26.40;99.90
38084;DHT22;23894;51.466;7.444;2022-07-03T11:11:48;26.50;99.90
38084;DHT22;23894;51.466;7.444;2022-07-03T11:14:19;26.60;99.90
38084;DHT22;23894;51.466;7.444;2022-07-03T11:16:23;26.60;99.90
38084;DHT22;23894;51.466;7.444;2022-07-03T11:18:29;26.60;99.90
38084;DHT22;23894;51.466;7.444;2022-07-03T11:20:30;26.60;99.90
38084;DHT22;23894;51.466;7.444;2022-07-03T11:22:44;26.60;99.90
38084;DHT22;23894;51.466;7.444;2022-07-03T11:24:50;26.70;99.90
38084;DHT22;23894;51.466;7.444;2022-07-03T11:29:28;26.50;99.90
38084;DHT22;23894;51.466;7.444;2022-07-03T11:31:29;26.50;99.90
38084;DHT22;23894;51.466;7.444;2022-07-03T11:35:50;26.70;99.90
38084;DHT22;23894;51.466;7.444;2022-07-03T11:37:52;26.70;99.90
38084;DHT22;23894;51.466;7.444;2022-07-03T11:39:57;26.80;99.90
38084;DHT22;23894;51.466;7.444;2022-07-03T11:42:02;26.80;99.90
38084;DHT22;23894;51.466;7.444;2022-07-03T11:44:08;26.80;99.90
38084;DHT22;23894;51.466;7.444;2022-07-03T11:46:08;26.70;99.90
38084;DHT22;23894;51.466;7.444;2022-07-03T11:48:12;26.70;99.90
38084;DHT22;23894;51.466;7.444;2022-07-03T11:50:13;26.60;99.90
38084;DHT22;23894;51.466;7.444;2022-07-03T11:52:13;26.50;99.90
38084;DHT22;23894;51.466;7.444;2022-07-03T11:54:14;26.50;99.90
38084;DHT22;23894;51.466;7.444;2022-07-03T11:56:18;26.40;99.90
38084;DHT22;23894;51.466;7.444;2022-07-03T11:58:19;26.40;99.90
38084;DHT22;23894;51.466;7.444;2022-07-03T12:00:19;26.40;99.90
38084;DHT22;23894;51.466;7.444;2022-07-03T12:02:20;26.50;99.90
38084;DHT22;23894;51.466;7.444;2022-07-03T12:04:21;26.60;99.90
38084;DHT22;23894;51.466;7.444;2022-07-03T12:06:25;26.70;99.90
38084;DHT22;23894;51.466;7.444;2022-07-03T12:08:30;26.70;99.90
38084;DHT22;23894;51.466;7.444;2022-07-03T12:10:41;26.70;99.90
38084;DHT22;23894;51.466;7.444;2022-07-03T12:12:42;26.70;99.90
38084;DHT22;23894;51.466;7.444;2022-07-03T12:14:44;26.80;99.90
38084;DHT22;23894;51.466;7.444;2022-07-03T12:16:45;26.80;99.90
38084;DHT22;23894;51.466;7.444;2022-07-03T12:19:06;26.80;99.90
38084;DHT22;23894;51.466;7.444;2022-07-03T12:21:06;26.80;99.90
38084;DHT22;23894;51.466;7.444;2022-07-03T12:23:08;26.80;99.90
38084;DHT22;23894;51.466;7.444;2022-07-03T12:25:11;26.70;99.90
38084;DHT22;23894;51.466;7.444;2022-07-03T12:27:12;26.80;99.90
38084;DHT22;23894;51.466;7.444;2022-07-03T12:29:15;26.90;99.90
38084;DHT22;23894;51.466;7.444;2022-07-03T12:31:16;27.00;99.90
38084;DHT22;23894;51.466;7.444;2022-07-03T12:33:16;27.10;99.90
38084;DHT22;23894;51.466;7.444;2022-07-03T12:35:21;27.10;99.90
38084;DHT22;23894;51.466;7.444;2022-07-03T12:37:36;27.20;99.90
38084;DHT22;23894;51.466;7.444;2022-07-03T12:40:10;27.20;99.90
38084;DHT22;23894;51.466;7.444;2022-07-03T12:42:21;27.20;99.90
38084;DHT22;23894;51.466;7.444;2022-07-03T12:44:22;27.20;99.90
38084;DHT22;23894;51.466;7.444;2022-07-03T12:46:24;27.20;99.90
38084;DHT22;23894;51.466;7.444;2022-07-03T12:48:24;27.10;99.90
38084;DHT22;23894;51.466;7.444;2022-07-03T12:50:25;27.10;99.90
38084;DHT22;23894;51.466;7.444;2022-07-03T12:52:30;27.20;99.90
38084;DHT22;23894;51.466;7.444;2022-07-03T12:54:33;27.30;99.90
38084;DHT22;23894;51.466;7.444;2022-07-03T12:56:34;27.30;99.90
38084;DHT22;23894;51.466;7.444;2022-07-03T12:58:36;27.30;99.90
38084;DHT22;23894;51.466;7.444;2022-07-03T13:00:56;27.40;99.90
38084;DHT22;23894;51.466;7.444;2022-07-03T13:02:57;27.40;99.90
38084;DHT22;23894;51.466;7.444;2022-07-03T13:04:59;27.50;99.90
38084;DHT22;23894;51.466;7.444;2022-07-03T13:07:05;27.40;99.90
38084;DHT22;23894;51.466;7.444;2022-07-03T13:09:06;27.60;99.90
38084;DHT22;23894;51.466;7.444;2022-07-03T13:11:07;27.70;99.90
38084;DHT22;23894;51.466;7.444;2022-07-03T13:13:07;27.70;99.90
38084;DHT22;23894;51.466;7.444;2022-07-03T13:15:08;27.60;99.90
38084;DHT22;23894;51.466;7.444;2022-07-03T13:17:09;27.60;99.90
38084;DHT22;23894;51.466;7.444;2022-07-03T13:19:12;27.60;99.90
38084;DHT22;23894;51.466;7.444;2022-07-03T13:21:12;27.60;99.90
38084;DHT22;23894;51.466;7.444;2022-07-03T13:23:13;27.60;99.90
38084;DHT22;23894;51.466;7.444;2022-07-03T13:25:14;27.70;99.90
38084;DHT22;23894;51.466;7.444;2022-07-03T13:27:15;27.70;99.90